KGMU

Greenville Downtown Airport

Greenville, South Carolina, USA
METAR KGMU 211353Z 22004KT 10SM SCT110 23/21 A3019 RMK AO2 SLP217 T02280206
Observed Flight Rules
May-21 @ 13:53 UTC (an hour ago) Visual Flight Rules
Wind Visibility Clouds
220° at 4 knots 10 miles
  • Scattered at 11,000' AGL
Temperatures Readings
Current 23°C / 73°F
Dewpoint 21°C / 70°F
Humidity 89%
Altimeter 30.19" Hg
Pressure 1021.7 hPa
Elevation 315
METAR KGMU 211353Z 22004KT 10SM SCT110 23/21 A3019 RMK AO2 SLP217 T02280206
Observed Flight Rules
May-21 @ 13:53 UTC
(an hour ago)
VFR
Wind Visibility
220° at 4 knots 10 miles
Clouds
  • Scattered at 11,000' AGL
Temperature Dewpoint
23°C / 73°F 21°C / 70°F
Humidity Altimeter Pressure
89% 30.19" Hg 1021.7 hPa